createdAt,value
2023-07-25T00:00:54.704Z,19.09
2023-07-25T00:03:22.691Z,18.88
2023-07-25T00:05:50.073Z,18.86
2023-07-25T00:08:17.555Z,18.85
2023-07-25T00:10:45.351Z,18.87
2023-07-25T00:13:13.345Z,18.93
2023-07-25T00:15:40.711Z,18.81
2023-07-25T00:18:08.780Z,18.53
2023-07-25T00:20:36.165Z,18.61
2023-07-25T00:23:03.450Z,18.55
2023-07-25T00:25:31.192Z,18.50
2023-07-25T00:27:59.482Z,18.71
2023-07-25T00:30:26.907Z,18.43
2023-07-25T00:32:54.696Z,18.37
2023-07-25T00:35:22.231Z,18.53
2023-07-25T00:37:49.616Z,18.51
2023-07-25T00:40:17.285Z,18.72
2023-07-25T00:42:44.904Z,18.52
2023-07-25T00:45:12.348Z,18.51
2023-07-25T00:47:41.077Z,18.25
2023-07-25T00:50:08.987Z,18.03
2023-07-25T00:52:36.412Z,18.09
2023-07-25T00:55:04.471Z,18.23
2023-07-25T00:57:34.667Z,18.11
2023-07-25T01:00:02.152Z,18.18
2023-07-25T01:02:30.438Z,18.21
2023-07-25T01:04:57.931Z,18.06
2023-07-25T01:07:25.402Z,18.14
2023-07-25T01:09:53.057Z,18.15
2023-07-25T01:12:20.459Z,17.89
2023-07-25T01:14:47.789Z,17.86
2023-07-25T01:17:19.949Z,17.91
2023-07-25T01:19:48.762Z,18.11
2023-07-25T01:22:16.902Z,18.01
2023-07-25T01:24:46.809Z,17.86
2023-07-25T01:27:17.961Z,17.83
2023-07-25T01:29:45.849Z,17.94
2023-07-25T01:32:13.363Z,17.66
2023-07-25T01:34:40.743Z,17.84
2023-07-25T01:37:09.699Z,17.91
2023-07-25T01:39:37.053Z,17.91
2023-07-25T01:42:04.840Z,18.14
2023-07-25T01:44:32.616Z,17.91
2023-07-25T01:47:00.068Z,17.88
2023-07-25T01:49:27.544Z,17.70
2023-07-25T01:51:55.309Z,17.56
2023-07-25T01:54:22.701Z,17.64
2023-07-25T01:56:51.073Z,17.66
2023-07-25T01:59:19.848Z,17.50
2023-07-25T02:01:47.398Z,17.32
2023-07-25T02:04:15.114Z,17.44
2023-07-25T02:06:42.535Z,17.48
2023-07-25T02:09:09.906Z,17.45
2023-07-25T02:11:37.649Z,17.58
2023-07-25T02:14:04.988Z,17.44
2023-07-25T02:16:35.168Z,17.42
2023-07-25T02:19:02.923Z,17.38
2023-07-25T02:21:30.660Z,17.57
2023-07-25T02:23:58.114Z,17.56
2023-07-25T02:26:26.622Z,17.33
2023-07-25T02:28:54.093Z,17.24
2023-07-25T02:31:21.694Z,17.14
2023-07-25T02:33:49.687Z,17.14
2023-07-25T02:36:17.712Z,17.28
2023-07-25T02:38:45.273Z,17.46
2023-07-25T02:41:14.276Z,17.37
2023-07-25T02:43:44.139Z,16.94
2023-07-25T02:46:12.485Z,17.14
2023-07-25T02:48:41.410Z,16.99
2023-07-25T02:51:11.884Z,16.95
2023-07-25T02:53:39.933Z,16.62
2023-07-25T02:56:08.091Z,16.91
2023-07-25T02:58:37.096Z,16.95
2023-07-25T03:01:05.546Z,17.11
2023-07-25T03:03:33.482Z,16.65
2023-07-25T03:06:01.460Z,16.86
2023-07-25T03:08:29.765Z,16.81
2023-07-25T03:10:58.019Z,16.37
2023-07-25T03:13:26.278Z,16.52
2023-07-25T03:15:54.901Z,16.53
2023-07-25T03:18:22.500Z,16.58
2023-07-25T03:20:50.423Z,16.68
2023-07-25T03:23:18.338Z,16.69
2023-07-25T03:25:45.932Z,16.79
2023-07-25T03:28:13.806Z,16.67
2023-07-25T03:30:42.623Z,16.69
2023-07-25T03:33:10.241Z,16.59
2023-07-25T03:35:38.160Z,16.77
2023-07-25T03:38:05.911Z,16.79
2023-07-25T03:40:33.326Z,16.95
2023-07-25T03:43:01.339Z,16.93
2023-07-25T03:45:29.105Z,16.84
2023-07-25T03:47:56.511Z,17.01
2023-07-25T03:50:24.246Z,16.90
2023-07-25T03:52:52.190Z,16.40
2023-07-25T03:55:19.688Z,16.73
2023-07-25T03:57:47.126Z,16.84
2023-07-25T04:00:15.271Z,16.91
2023-07-25T04:02:42.462Z,16.92
2023-07-25T04:05:10.693Z,17.06
2023-07-25T04:07:38.265Z,17.01
2023-07-25T04:10:06.499Z,17.18
2023-07-25T04:12:34.509Z,17.19
2023-07-25T04:15:02.240Z,17.16
2023-07-25T04:17:29.814Z,17.33
2023-07-25T04:19:57.641Z,17.20
2023-07-25T04:22:25.211Z,17.39
2023-07-25T04:24:52.842Z,17.67
2023-07-25T04:27:20.557Z,17.59
2023-07-25T04:29:47.895Z,17.60
2023-07-25T04:32:15.490Z,17.65
2023-07-25T04:34:43.464Z,17.51
2023-07-25T04:37:10.852Z,17.51
2023-07-25T04:39:38.195Z,17.54
2023-07-25T04:42:06.784Z,17.55
2023-07-25T04:44:34.187Z,17.60
2023-07-25T04:47:05.160Z,17.44
2023-07-25T04:49:33.027Z,17.24
2023-07-25T04:52:00.398Z,16.85
2023-07-25T04:54:27.753Z,16.79
2023-07-25T04:56:55.768Z,17.16
2023-07-25T04:59:23.424Z,17.58
2023-07-25T05:01:50.886Z,17.71
2023-07-25T05:04:19.171Z,17.86
2023-07-25T05:06:46.740Z,17.97
2023-07-25T05:09:14.176Z,18.01
2023-07-25T05:11:41.916Z,18.19
2023-07-25T05:14:09.529Z,18.40
2023-07-25T05:16:37.071Z,18.63
2023-07-25T05:19:05.090Z,18.37
2023-07-25T05:21:32.737Z,18.49
2023-07-25T05:24:00.664Z,18.31
2023-07-25T05:26:28.719Z,18.46
2023-07-25T05:28:56.112Z,18.94
2023-07-25T05:31:23.683Z,19.20
2023-07-25T05:33:51.474Z,19.20
2023-07-25T05:36:18.839Z,19.52
2023-07-25T05:38:46.261Z,19.46
2023-07-25T05:41:14.044Z,19.94
2023-07-25T05:43:43.271Z,19.99
2023-07-25T05:46:11.158Z,20.06
2023-07-25T05:48:39.370Z,20.22
2023-07-25T05:51:07.329Z,20.33
2023-07-25T05:53:35.076Z,20.55
2023-07-25T05:56:03.078Z,20.63
2023-07-25T05:58:31.244Z,20.79
2023-07-25T06:00:58.815Z,21.01
2023-07-25T06:03:26.933Z,21.28
2023-07-25T06:05:54.357Z,21.54
2023-07-25T06:08:21.736Z,21.71
2023-07-25T06:10:49.688Z,21.97
2023-07-25T06:13:17.243Z,22.18
2023-07-25T06:15:45.589Z,22.33
2023-07-25T06:18:13.314Z,22.59
2023-07-25T06:20:41.110Z,22.87
2023-07-25T06:23:09.148Z,22.96
2023-07-25T06:25:36.857Z,23.16
2023-07-25T06:28:06.273Z,23.22
2023-07-25T06:30:34.100Z,23.31
2023-07-25T06:33:02.985Z,23.43
2023-07-25T06:35:30.336Z,23.69
2023-07-25T06:37:57.968Z,23.82
2023-07-25T06:40:26.072Z,23.84
2023-07-25T06:42:53.484Z,23.88
2023-07-25T06:45:21.058Z,24.04
2023-07-25T06:47:49.456Z,24.18
2023-07-25T06:50:17.149Z,24.55
2023-07-25T06:52:44.602Z,24.72
2023-07-25T06:55:12.378Z,24.99
2023-07-25T06:57:39.988Z,25.12
2023-07-25T07:00:09.320Z,25.19
2023-07-25T07:02:37.339Z,25.29
2023-07-25T07:05:19.257Z,25.62
2023-07-25T07:07:54.514Z,25.75
2023-07-25T07:10:22.021Z,25.90
2023-07-25T07:12:49.829Z,26.16
2023-07-25T07:15:17.702Z,26.44
2023-07-25T07:17:45.102Z,26.44
2023-07-25T07:20:13.020Z,26.53
2023-07-25T07:22:40.864Z,26.71
2023-07-25T07:25:09.772Z,26.98
2023-07-25T07:27:37.625Z,27.17
2023-07-25T07:30:06.273Z,27.22
2023-07-25T07:32:33.924Z,27.11
2023-07-25T07:35:01.466Z,27.28
2023-07-25T07:37:30.630Z,27.51
2023-07-25T07:39:59.521Z,27.70
2023-07-25T07:42:26.911Z,27.99
2023-07-25T07:44:54.667Z,28.26
2023-07-25T07:47:22.205Z,28.61
2023-07-25T07:49:49.549Z,28.39
2023-07-25T07:52:26.000Z,28.35
2023-07-25T07:55:00.910Z,28.70
2023-07-25T07:57:28.426Z,28.90
2023-07-25T07:59:56.568Z,28.97
2023-07-25T08:02:24.477Z,29.27
2023-07-25T08:04:52.560Z,29.32
2023-07-25T08:07:20.239Z,29.35
2023-07-25T08:09:48.099Z,29.59
2023-07-25T08:12:16.693Z,29.75
2023-07-25T08:14:44.807Z,29.66
2023-07-25T08:17:12.316Z,29.93
2023-07-25T08:19:40.989Z,29.58
2023-07-25T08:22:08.658Z,29.88
2023-07-25T08:24:36.572Z,30.04
2023-07-25T08:27:05.723Z,30.01
2023-07-25T08:29:33.666Z,30.17
2023-07-25T08:32:01.720Z,30.33
2023-07-25T08:34:30.295Z,30.69
2023-07-25T08:36:57.578Z,30.79
2023-07-25T08:39:25.041Z,30.70
2023-07-25T08:41:54.219Z,30.60
2023-07-25T08:44:23.017Z,30.81
2023-07-25T08:46:54.246Z,30.91
2023-07-25T08:49:24.965Z,30.75
2023-07-25T08:51:56.722Z,31.00
2023-07-25T08:54:39.434Z,31.04
2023-07-25T08:57:08.286Z,31.31
2023-07-25T08:59:37.105Z,31.33
2023-07-25T09:02:05.380Z,31.44
2023-07-25T09:04:33.900Z,31.56
2023-07-25T09:07:02.102Z,31.64
2023-07-25T09:09:29.545Z,31.62
2023-07-25T09:12:00.365Z,31.99
2023-07-25T09:14:28.636Z,32.19
2023-07-25T09:16:56.841Z,32.35
2023-07-25T09:19:25.030Z,32.31
2023-07-25T09:21:59.127Z,32.35
2023-07-25T09:24:37.289Z,32.45
2023-07-25T09:27:16.904Z,32.71
2023-07-25T09:29:44.844Z,32.80
2023-07-25T09:32:27.454Z,32.85
2023-07-25T09:35:00.256Z,32.99
2023-07-25T09:37:29.802Z,33.22
2023-07-25T09:39:57.344Z,33.43
2023-07-25T09:42:26.089Z,33.44
2023-07-25T09:44:55.530Z,33.71
2023-07-25T09:47:28.485Z,33.80
2023-07-25T09:49:58.218Z,33.86
2023-07-25T09:52:27.004Z,34.00
2023-07-25T09:54:54.473Z,34.25
2023-07-25T09:57:22.492Z,34.30
2023-07-25T09:59:52.579Z,34.23
2023-07-25T10:02:20.168Z,34.50
2023-07-25T10:04:48.954Z,34.69
2023-07-25T10:07:16.663Z,34.84
2023-07-25T10:09:47.304Z,35.01
2023-07-25T10:12:15.193Z,35.27
2023-07-25T10:14:42.778Z,35.48
2023-07-25T10:17:10.617Z,35.25
2023-07-25T10:19:49.620Z,35.57
2023-07-25T10:22:17.649Z,35.58
2023-07-25T10:24:45.630Z,34.54
2023-07-25T10:27:14.158Z,35.08
2023-07-25T10:29:44.371Z,35.33
2023-07-25T10:32:17.745Z,35.69
2023-07-25T10:34:46.966Z,35.98
2023-07-25T10:37:21.771Z,36.05
2023-07-25T10:40:10.429Z,36.11
2023-07-25T10:43:04.446Z,35.56
2023-07-25T10:45:34.502Z,35.17
2023-07-25T10:48:02.538Z,35.31
2023-07-25T10:50:52.906Z,35.76
2023-07-25T10:53:21.984Z,36.01
2023-07-25T10:56:10.921Z,36.24
2023-07-25T10:59:00.416Z,36.53
2023-07-25T11:01:46.356Z,36.38
2023-07-25T11:04:30.244Z,36.62
2023-07-25T11:07:14.059Z,36.93
2023-07-25T11:09:43.825Z,36.28
2023-07-25T11:12:15.367Z,36.43
2023-07-25T11:14:44.722Z,36.15
2023-07-25T11:17:14.077Z,36.51
2023-07-25T11:19:42.899Z,36.77
2023-07-25T11:22:13.121Z,37.06
2023-07-25T11:24:44.940Z,37.43
2023-07-25T11:27:13.626Z,37.46
2023-07-25T11:29:42.433Z,37.17
2023-07-25T11:32:10.453Z,37.40
2023-07-25T11:34:38.666Z,37.60
2023-07-25T11:37:13.454Z,37.79
2023-07-25T11:39:41.644Z,37.70
2023-07-25T11:42:09.978Z,38.02
2023-07-25T11:44:37.899Z,37.90
2023-07-25T11:47:06.305Z,38.09
2023-07-25T11:52:06.206Z,38.11
2023-07-25T11:54:35.390Z,38.22
2023-07-25T11:57:03.453Z,38.35
2023-07-25T11:59:31.285Z,38.31
2023-07-25T12:02:07.673Z,38.58
2023-07-25T12:04:44.187Z,38.62
2023-07-25T12:07:12.864Z,38.68
2023-07-25T12:09:41.390Z,38.62
2023-07-25T12:12:13.743Z,38.50
2023-07-25T12:14:42.543Z,38.56
2023-07-25T12:17:10.076Z,38.58
2023-07-25T12:19:37.439Z,38.74
2023-07-25T12:22:05.970Z,38.77
2023-07-25T12:24:42.713Z,39.14
2023-07-25T12:27:20.286Z,38.63
2023-07-25T12:29:47.749Z,38.26
2023-07-25T12:32:15.578Z,38.48
2023-07-25T12:34:43.039Z,38.45
2023-07-25T12:42:29.550Z,39.53
2023-07-25T12:45:02.465Z,39.53
2023-07-25T12:47:29.923Z,39.20
2023-07-25T12:49:57.618Z,39.09
2023-07-25T12:52:25.007Z,38.65
2023-07-25T12:54:52.522Z,38.82
2023-07-25T12:57:20.291Z,38.91
2023-07-25T12:59:48.634Z,38.94
2023-07-25T13:02:16.620Z,39.20
2023-07-25T13:04:44.517Z,39.39
2023-07-25T13:07:11.920Z,39.76
2023-07-25T13:09:39.339Z,39.62
2023-07-25T13:12:07.576Z,39.60
2023-07-25T13:14:35.096Z,39.52
2023-07-25T13:17:02.561Z,39.67
2023-07-25T13:19:30.400Z,39.55
2023-07-25T13:21:57.822Z,38.78
2023-07-25T13:24:25.365Z,38.42
2023-07-25T13:26:53.226Z,38.59
2023-07-25T13:29:20.633Z,38.57
2023-07-25T13:31:48.061Z,38.56
2023-07-25T13:34:16.087Z,38.49
2023-07-25T13:36:43.525Z,38.12
2023-07-25T13:39:10.948Z,38.53
2023-07-25T13:41:38.731Z,38.70
2023-07-25T13:44:06.259Z,37.90
2023-07-25T13:46:33.745Z,38.41
2023-07-25T13:49:01.628Z,38.25
2023-07-25T13:51:29.458Z,38.42
2023-07-25T13:53:57.196Z,38.15
2023-07-25T13:56:25.001Z,38.36
2023-07-25T13:58:53.713Z,38.37
2023-07-25T14:01:21.402Z,37.94
2023-07-25T14:03:49.115Z,38.37
2023-07-25T14:06:16.532Z,38.44
2023-07-25T14:08:43.989Z,38.63
2023-07-25T14:11:11.769Z,38.77
2023-07-25T14:13:39.205Z,38.83
2023-07-25T14:16:07.098Z,38.43
2023-07-25T14:18:34.882Z,38.84
2023-07-25T14:21:02.597Z,38.78
2023-07-25T14:23:29.790Z,38.85
2023-07-25T14:25:57.538Z,38.92
2023-07-25T14:28:25.031Z,38.99
2023-07-25T14:30:52.314Z,39.44
2023-07-25T14:33:21.987Z,38.78
2023-07-25T14:35:50.023Z,37.73
2023-07-25T14:38:18.808Z,38.27
2023-07-25T14:40:47.195Z,37.47
2023-07-25T14:43:14.771Z,38.29
2023-07-25T14:45:42.218Z,38.66
2023-07-25T14:48:10.121Z,38.85
2023-07-25T14:50:38.103Z,39.04
2023-07-25T14:53:05.629Z,39.35
2023-07-25T14:55:33.425Z,39.61
2023-07-25T14:58:01.289Z,39.89
2023-07-25T15:00:28.854Z,39.94
2023-07-25T15:02:56.726Z,40.22
2023-07-25T15:05:24.236Z,40.53
2023-07-25T15:07:51.530Z,40.76
2023-07-25T15:10:19.476Z,41.15
2023-07-25T15:12:47.545Z,41.51
2023-07-25T15:15:15.145Z,41.95
2023-07-25T15:17:43.200Z,41.70
2023-07-25T15:20:10.957Z,41.91
2023-07-25T15:22:38.738Z,42.54
2023-07-25T15:25:07.214Z,43.15
2023-07-25T15:27:35.532Z,42.68
2023-07-25T15:30:03.054Z,42.91
2023-07-25T15:32:31.436Z,42.90
2023-07-25T15:34:58.895Z,43.37
2023-07-25T15:37:26.491Z,43.59
2023-07-25T15:39:54.502Z,42.71
2023-07-25T15:42:21.921Z,42.76
2023-07-25T15:44:49.311Z,43.42
2023-07-25T15:47:17.317Z,41.91
2023-07-25T15:49:44.785Z,42.49
2023-07-25T15:52:12.317Z,42.22
2023-07-25T15:54:40.198Z,42.02
2023-07-25T15:57:07.988Z,41.84
2023-07-25T15:59:35.452Z,42.11
2023-07-25T16:02:03.406Z,42.42
2023-07-25T16:04:31.736Z,41.54
2023-07-25T16:07:00.006Z,41.04
2023-07-25T16:09:28.387Z,40.58
2023-07-25T16:11:56.478Z,40.72
2023-07-25T16:14:23.916Z,41.06
2023-07-25T16:16:51.229Z,41.01
2023-07-25T16:19:19.100Z,39.88
2023-07-25T16:21:46.495Z,37.28
2023-07-25T16:24:13.987Z,38.08
2023-07-25T16:26:41.816Z,38.29
2023-07-25T16:29:09.344Z,38.81
2023-07-25T16:31:36.846Z,39.02
2023-07-25T16:34:05.125Z,38.91
2023-07-25T16:36:32.585Z,38.53
2023-07-25T16:39:00.017Z,37.59
2023-07-25T16:41:27.898Z,36.78
2023-07-25T16:43:55.364Z,35.19
2023-07-25T16:46:22.962Z,35.14
2023-07-25T16:48:50.606Z,34.77
2023-07-25T16:51:18.555Z,34.79
2023-07-25T16:53:46.141Z,34.79
2023-07-25T16:56:14.061Z,34.64
2023-07-25T16:58:41.696Z,34.48
2023-07-25T17:01:09.239Z,33.99
2023-07-25T17:03:36.993Z,32.50
2023-07-25T17:06:05.176Z,32.83
2023-07-25T17:08:33.063Z,33.00
2023-07-25T17:11:05.860Z,32.97
2023-07-25T17:13:34.235Z,32.41
2023-07-25T17:16:02.059Z,32.13
2023-07-25T17:18:30.659Z,32.17
2023-07-25T17:20:58.254Z,32.05
2023-07-25T17:23:26.127Z,31.89
2023-07-25T17:25:53.657Z,31.99
2023-07-25T17:28:21.212Z,32.21
2023-07-25T17:30:49.066Z,31.95
2023-07-25T17:33:16.717Z,32.03
2023-07-25T17:35:44.145Z,31.79
2023-07-25T17:38:14.887Z,31.75
2023-07-25T17:40:43.369Z,31.45
2023-07-25T17:43:10.909Z,31.42
2023-07-25T17:45:38.826Z,31.24
2023-07-25T17:48:06.653Z,31.12
2023-07-25T17:50:34.096Z,31.00
2023-07-25T17:53:02.329Z,31.13
2023-07-25T17:55:29.708Z,30.71
2023-07-25T17:57:57.204Z,30.66
2023-07-25T18:00:25.050Z,30.33
2023-07-25T18:02:53.008Z,30.20
2023-07-25T18:05:21.877Z,30.25
2023-07-25T18:07:49.288Z,30.15
2023-07-25T18:10:17.087Z,29.83
2023-07-25T18:12:44.591Z,29.89
2023-07-25T18:15:12.266Z,29.58
2023-07-25T18:17:39.980Z,29.47
2023-07-25T18:20:07.937Z,29.36
2023-07-25T18:22:35.410Z,29.17
2023-07-25T18:25:03.424Z,28.91
2023-07-25T18:27:30.887Z,28.87
2023-07-25T18:29:58.392Z,28.85
2023-07-25T18:32:26.266Z,28.85
2023-07-25T18:34:53.898Z,28.92
2023-07-25T18:37:21.328Z,28.58
2023-07-25T18:39:49.087Z,28.42
2023-07-25T18:42:16.695Z,28.41
2023-07-25T18:44:44.190Z,28.48
2023-07-25T18:47:18.254Z,28.42
2023-07-25T18:49:52.548Z,28.37
2023-07-25T18:52:20.405Z,27.96
2023-07-25T18:54:47.785Z,28.17
2023-07-25T18:57:20.822Z,28.13
2023-07-25T18:59:49.112Z,27.82
2023-07-25T19:02:17.005Z,27.76
2023-07-25T19:04:45.959Z,27.66
2023-07-25T19:07:16.296Z,27.42
2023-07-25T19:09:44.144Z,27.55
2023-07-25T19:12:12.275Z,27.49
2023-07-25T19:14:40.353Z,27.54
2023-07-25T19:17:09.268Z,27.21
2023-07-25T19:19:38.114Z,26.89
2023-07-25T19:22:08.468Z,26.90
2023-07-25T19:24:36.029Z,27.18
2023-07-25T19:27:03.764Z,26.87
2023-07-25T19:29:31.603Z,26.64
2023-07-25T19:31:59.113Z,26.44
2023-07-25T19:34:26.622Z,26.67
2023-07-25T19:36:54.482Z,26.61
2023-07-25T19:39:23.218Z,26.44
2023-07-25T19:41:52.215Z,26.53
2023-07-25T19:44:21.542Z,26.76
2023-07-25T19:46:48.988Z,26.61
2023-07-25T19:49:16.506Z,26.64
2023-07-25T19:51:45.694Z,26.67
2023-07-25T19:54:15.002Z,26.41
2023-07-25T19:56:42.674Z,26.33
2023-07-25T19:59:10.493Z,26.56
2023-07-25T20:01:38.034Z,26.46
2023-07-25T20:04:05.849Z,26.53
2023-07-25T20:06:33.938Z,26.28
2023-07-25T20:09:02.889Z,26.13
2023-07-25T20:11:31.103Z,26.23
2023-07-25T20:13:59.517Z,26.02
2023-07-25T20:16:27.045Z,25.92
2023-07-25T20:18:54.948Z,26.02
2023-07-25T20:21:23.222Z,26.14
2023-07-25T20:23:50.685Z,25.96
2023-07-25T20:26:19.378Z,25.90
2023-07-25T20:28:46.806Z,25.79
2023-07-25T20:31:14.169Z,25.70
2023-07-25T20:33:42.620Z,25.80
2023-07-25T20:36:11.070Z,25.59
2023-07-25T20:38:38.514Z,25.25
2023-07-25T20:41:06.229Z,25.27
2023-07-25T20:43:33.686Z,25.11
2023-07-25T20:46:04.703Z,25.24
2023-07-25T20:48:33.270Z,25.34
2023-07-25T20:51:01.289Z,25.21
2023-07-25T20:53:28.964Z,25.24
2023-07-25T20:55:57.714Z,25.17
2023-07-25T20:58:25.586Z,24.84
2023-07-25T21:00:53.123Z,24.91
2023-07-25T21:03:21.117Z,24.87
2023-07-25T21:05:48.678Z,24.66
2023-07-25T21:08:16.349Z,24.56
2023-07-25T21:10:44.092Z,24.51
2023-07-25T21:13:11.713Z,24.69
2023-07-25T21:15:39.310Z,24.81
2023-07-25T21:18:13.681Z,24.89
2023-07-25T21:20:42.608Z,24.91
2023-07-25T21:23:11.699Z,24.85
2023-07-25T21:25:39.142Z,24.66
2023-07-25T21:28:06.700Z,24.41
2023-07-25T21:30:34.609Z,24.05
2023-07-25T21:33:02.098Z,23.45
2023-07-25T21:35:29.675Z,23.62
2023-07-25T21:37:57.482Z,23.89
2023-07-25T21:40:25.404Z,23.75
2023-07-25T21:42:52.865Z,23.75
2023-07-25T21:45:20.740Z,23.93
2023-07-25T21:47:48.381Z,24.19
2023-07-25T21:50:15.897Z,24.43
2023-07-25T21:52:43.800Z,24.51
2023-07-25T21:55:11.241Z,24.37
2023-07-25T21:57:38.629Z,24.42
2023-07-25T22:00:07.473Z,24.10
2023-07-25T22:02:39.634Z,24.10
2023-07-25T22:05:07.949Z,24.14
2023-07-25T22:07:35.401Z,24.15
2023-07-25T22:10:02.912Z,24.19
2023-07-25T22:12:30.770Z,24.08
2023-07-25T22:14:58.179Z,24.13
2023-07-25T22:17:25.604Z,24.09
2023-07-25T22:19:53.308Z,24.15
2023-07-25T22:22:20.747Z,24.15
2023-07-25T22:24:48.220Z,24.17
2023-07-25T22:27:15.968Z,24.24
2023-07-25T22:29:46.668Z,24.29
2023-07-25T22:32:14.144Z,24.17
2023-07-25T22:34:41.930Z,24.31
2023-07-25T22:37:09.435Z,24.35
2023-07-25T22:39:36.965Z,24.22
2023-07-25T22:42:05.132Z,24.38
2023-07-25T22:44:32.484Z,24.41
2023-07-25T22:46:59.731Z,24.55
2023-07-25T22:49:27.568Z,24.45
2023-07-25T22:51:55.053Z,24.17
2023-07-25T22:54:23.198Z,23.99
2023-07-25T22:56:51.062Z,23.79
2023-07-25T22:59:18.889Z,23.67
2023-07-25T23:01:46.441Z,23.49
2023-07-25T23:04:14.269Z,23.57
2023-07-25T23:06:41.965Z,23.81
2023-07-25T23:09:09.470Z,24.02
2023-07-25T23:11:37.173Z,24.00
2023-07-25T23:14:04.957Z,23.98
2023-07-25T23:16:32.757Z,24.02
2023-07-25T23:19:00.721Z,24.05
2023-07-25T23:21:28.311Z,23.96
2023-07-25T23:23:55.909Z,23.95
2023-07-25T23:26:23.707Z,23.97
2023-07-25T23:28:53.882Z,23.98
2023-07-25T23:31:21.487Z,24.13
2023-07-25T23:33:49.451Z,24.17
2023-07-25T23:36:16.868Z,24.07
2023-07-25T23:38:44.370Z,24.03
2023-07-25T23:41:12.019Z,23.98
2023-07-25T23:43:39.488Z,23.91
2023-07-25T23:46:06.920Z,23.96
2023-07-25T23:48:37.014Z,23.87
2023-07-25T23:51:04.663Z,23.87
2023-07-25T23:53:32.071Z,23.74
2023-07-25T23:55:59.913Z,23.75
2023-07-25T23:58:27.479Z,23.68
